createdAt,value
2022-10-10T00:01:04.623Z,70.74
2022-10-10T00:06:36.072Z,70.67
2022-10-10T00:12:07.827Z,70.68
2022-10-10T00:17:39.701Z,70.75
2022-10-10T00:23:11.543Z,70.63
2022-10-10T00:28:43.339Z,70.65
2022-10-10T00:34:15.064Z,70.72
2022-10-10T00:39:46.747Z,70.82
2022-10-10T00:45:18.418Z,70.89
2022-10-10T00:50:50.132Z,71.11
2022-10-10T00:56:21.874Z,71.33
2022-10-10T01:01:53.611Z,71.33
2022-10-10T01:07:25.402Z,71.23
2022-10-10T01:12:57.042Z,71.22
2022-10-10T01:18:28.960Z,71.26
2022-10-10T01:24:00.670Z,71.27
2022-10-10T01:29:33.210Z,71.30
2022-10-10T01:35:05.198Z,71.39
2022-10-10T01:40:36.597Z,71.39
2022-10-10T01:46:08.370Z,71.43
2022-10-10T01:51:40.110Z,71.46
2022-10-10T01:57:11.785Z,71.52
2022-10-10T02:02:43.626Z,71.53
2022-10-10T02:08:15.483Z,71.62
2022-10-10T02:13:48.236Z,71.60
2022-10-10T02:24:51.783Z,71.64
2022-10-10T02:30:29.872Z,71.69
2022-10-10T02:36:04.013Z,71.78
2022-10-10T02:47:10.029Z,71.85
2022-10-10T02:52:41.726Z,71.93
2022-10-10T02:58:13.612Z,71.95
2022-10-10T03:03:45.273Z,71.98
2022-10-10T03:09:17.103Z,72.04
2022-10-10T03:14:48.592Z,72.17
2022-10-10T03:20:20.373Z,72.14
2022-10-10T03:25:51.761Z,72.32
2022-10-10T03:31:23.756Z,72.38
2022-10-10T03:36:57.808Z,72.54
2022-10-10T03:42:29.582Z,72.62
2022-10-10T03:53:32.938Z,72.73
2022-10-10T04:04:36.639Z,73.18
2022-10-10T04:10:08.395Z,73.50
2022-10-10T04:15:40.175Z,73.48
2022-10-10T04:21:12.110Z,73.38
2022-10-10T04:26:43.780Z,73.39
2022-10-10T04:32:15.616Z,73.37
2022-10-10T04:37:47.379Z,73.43
2022-10-10T04:43:21.794Z,73.47
2022-10-10T04:48:53.303Z,73.45
2022-10-10T04:54:25.098Z,73.53
2022-10-10T04:59:57.084Z,73.50
2022-10-10T05:05:28.725Z,73.47
2022-10-10T05:11:00.612Z,73.47
2022-10-10T05:16:34.239Z,73.53
2022-10-10T05:22:07.140Z,73.58
2022-10-10T05:27:38.782Z,73.57
2022-10-10T05:33:12.884Z,73.60
2022-10-10T05:38:44.620Z,73.63
2022-10-10T05:44:16.351Z,73.66
2022-10-10T05:49:49.154Z,73.67
2022-10-10T05:55:20.959Z,73.66
2022-10-10T06:00:52.834Z,73.70
2022-10-10T06:06:24.630Z,73.70
2022-10-10T06:11:56.241Z,73.68
2022-10-10T06:17:28.168Z,73.61
2022-10-10T06:22:59.869Z,73.61
2022-10-10T06:28:31.721Z,73.52
2022-10-10T06:34:03.784Z,73.38
2022-10-10T06:39:35.353Z,73.37
2022-10-10T06:45:07.337Z,73.19
2022-10-10T06:50:39.102Z,72.78
2022-10-10T06:56:10.759Z,72.60
2022-10-10T07:01:42.461Z,72.08
2022-10-10T07:07:14.296Z,71.63
2022-10-10T07:12:48.281Z,71.78
2022-10-10T07:18:19.973Z,71.76
2022-10-10T07:23:51.827Z,71.41
2022-10-10T07:34:55.535Z,70.45
2022-10-10T07:40:27.174Z,70.57
2022-10-10T07:51:30.173Z,70.36
2022-10-10T07:57:02.161Z,69.99
2022-10-10T08:02:33.963Z,69.83
2022-10-10T08:08:05.766Z,69.14
2022-10-10T08:13:37.258Z,68.95
2022-10-10T08:19:09.288Z,68.41
2022-10-10T08:27:00.986Z,67.20
2022-10-10T08:32:32.783Z,66.48
2022-10-10T08:38:04.635Z,65.98
2022-10-10T08:43:36.274Z,65.22
2022-10-10T08:56:57.975Z,61.85
2022-10-10T09:02:43.598Z,62.09
2022-10-10T09:08:01.014Z,61.76
2022-10-10T09:13:32.787Z,61.55
2022-10-10T09:24:34.173Z,60.63
2022-10-10T09:30:05.871Z,60.32
2022-10-10T09:35:37.688Z,59.65
2022-10-10T09:41:09.558Z,59.19
2022-10-10T09:46:41.274Z,58.94
2022-10-10T09:52:13.124Z,58.16
2022-10-10T09:57:44.951Z,57.80
2022-10-10T10:03:16.692Z,57.69
2022-10-10T10:14:17.507Z,56.85
2022-10-10T10:19:49.250Z,56.50
2022-10-10T10:25:20.967Z,55.69
2022-10-10T10:30:52.877Z,55.55
2022-10-10T10:36:24.660Z,55.43
2022-10-10T10:41:56.461Z,55.10
2022-10-10T10:47:27.992Z,55.46
2022-10-10T10:52:59.517Z,55.45
2022-10-10T11:05:17.847Z,54.74
2022-10-10T11:09:49.651Z,53.57
2022-10-10T11:15:06.675Z,53.59
2022-10-10T11:20:38.296Z,53.56
2022-10-10T11:31:39.589Z,52.63
2022-10-10T11:37:11.558Z,52.72
2022-10-10T11:42:43.145Z,52.65
2022-10-10T11:53:45.799Z,53.34
2022-10-10T11:59:17.408Z,53.76
2022-10-10T12:04:49.103Z,53.64
2022-10-10T12:15:50.262Z,53.23
2022-10-10T12:21:21.437Z,52.81
2022-10-10T12:26:52.779Z,52.57
2022-10-10T12:32:24.118Z,52.93
2022-10-10T12:43:25.144Z,53.06
2022-10-10T12:48:56.805Z,52.43
2022-10-10T12:54:28.544Z,52.74
2022-10-10T13:00:02.200Z,52.86
2022-10-10T13:05:31.668Z,52.83
2022-10-10T13:11:03.935Z,53.09
2022-10-10T13:22:05.046Z,53.18
2022-10-10T13:27:37.200Z,53.25
2022-10-10T13:33:08.610Z,53.63
2022-10-10T13:44:10.095Z,53.90
2022-10-10T13:49:41.955Z,53.85
2022-10-10T13:55:13.476Z,53.83
2022-10-10T14:06:14.962Z,53.89
2022-10-10T14:11:46.479Z,54.21
2022-10-10T14:17:18.133Z,54.40
2022-10-10T14:22:51.486Z,54.57
2022-10-10T14:28:23.245Z,54.79
2022-10-10T14:33:55.052Z,54.97
2022-10-10T14:39:26.791Z,55.22
2022-10-10T14:44:58.388Z,55.28
2022-10-10T14:50:31.115Z,55.40
2022-10-10T14:56:02.952Z,55.45
2022-10-10T15:01:34.732Z,55.59
2022-10-10T15:07:13.343Z,55.49
2022-10-10T15:12:38.379Z,55.88
2022-10-10T15:18:39.248Z,56.06
2022-10-10T15:23:41.704Z,56.49
2022-10-10T15:29:13.364Z,56.65
2022-10-10T15:34:45.331Z,56.99
2022-10-10T15:40:16.889Z,57.17
2022-10-10T15:45:55.902Z,57.51
2022-10-10T15:51:19.937Z,57.71
2022-10-10T15:56:51.697Z,57.75
2022-10-10T16:02:23.670Z,58.07
2022-10-10T16:07:55.504Z,58.32
2022-10-10T16:13:27.443Z,58.76
2022-10-10T16:18:58.978Z,58.95
2022-10-10T16:24:30.821Z,59.26
2022-10-10T16:30:02.660Z,59.40
2022-10-10T16:35:34.436Z,59.60
2022-10-10T16:41:06.224Z,59.71
2022-10-10T16:46:37.986Z,59.84
2022-10-10T16:52:09.566Z,59.91
2022-10-10T16:57:41.883Z,60.29
2022-10-10T17:03:13.773Z,60.45
2022-10-10T17:14:15.134Z,60.91
2022-10-10T17:19:46.881Z,61.33
2022-10-10T17:25:18.406Z,61.35
2022-10-10T17:30:50.095Z,61.73
2022-10-10T17:36:21.910Z,61.82
2022-10-10T17:47:23.163Z,62.18
2022-10-10T17:52:54.889Z,62.30
2022-10-10T17:58:27.133Z,62.53
2022-10-10T18:03:58.924Z,62.77
2022-10-10T18:09:30.849Z,62.89
2022-10-10T18:15:02.646Z,63.15
2022-10-10T18:20:34.182Z,63.26
2022-10-10T18:26:06.016Z,63.55
2022-10-10T18:31:37.777Z,63.71
2022-10-10T18:37:09.629Z,63.89
2022-10-10T18:42:41.413Z,64.00
2022-10-10T18:48:12.869Z,64.25
2022-10-10T18:53:44.620Z,64.41
2022-10-10T18:59:16.683Z,64.59
2022-10-10T19:04:48.210Z,65.21
2022-10-10T19:10:19.617Z,65.12
2022-10-10T19:15:51.658Z,65.22
2022-10-10T19:21:23.393Z,65.43
2022-10-10T19:26:55.305Z,65.56
2022-10-10T19:32:26.838Z,65.76
2022-10-10T19:37:58.659Z,65.92
2022-10-10T19:43:30.312Z,66.05
2022-10-10T19:49:01.784Z,66.26
2022-10-10T19:54:34.207Z,66.43
2022-10-10T20:00:05.967Z,66.51
2022-10-10T20:05:37.817Z,66.71
2022-10-10T20:11:09.828Z,66.79
2022-10-10T20:16:41.395Z,66.94
2022-10-10T20:22:14.365Z,67.02
2022-10-10T20:33:15.651Z,67.61
2022-10-10T20:38:47.405Z,67.54
2022-10-10T20:44:19.313Z,67.56
2022-10-10T20:49:50.750Z,67.92
2022-10-10T20:55:22.586Z,68.30
2022-10-10T21:06:24.174Z,68.38
2022-10-10T21:11:56.012Z,68.47
2022-10-10T21:17:27.699Z,68.51
2022-10-10T21:22:59.690Z,68.51
2022-10-10T21:28:31.425Z,68.65
2022-10-10T21:34:03.256Z,68.73
2022-10-10T21:39:35.008Z,68.91
2022-10-10T21:45:06.714Z,68.93
2022-10-10T21:50:38.548Z,69.26
2022-10-10T21:56:10.553Z,69.34
2022-10-10T22:01:42.149Z,69.32
2022-10-10T22:03:53.910Z,0.00
2022-10-10T22:09:25.377Z,69.44
2022-10-10T22:20:26.209Z,69.56
2022-10-10T22:25:58.133Z,69.61
2022-10-10T22:31:29.834Z,69.79
2022-10-10T22:42:33.317Z,70.00
2022-10-10T22:48:04.945Z,70.04
2022-10-10T22:53:36.483Z,70.17
2022-10-10T22:59:08.757Z,70.40
2022-10-10T23:04:40.677Z,70.59
2022-10-10T23:10:12.465Z,70.61
2022-10-10T23:15:44.117Z,70.67
2022-10-10T23:26:47.607Z,70.95
2022-10-10T23:32:18.934Z,70.97
2022-10-10T23:37:50.334Z,71.17
2022-10-10T23:48:54.045Z,71.33
2022-10-10T23:54:25.952Z,71.35
2022-10-10T23:59:57.734Z,71.73
